Weather History for KRYV - February, 2014

Change the Weather History Date:

Wednesday, February 26, 2014

  Actual Average Record
Temperature  
Mean Temperature 4 °F -  
Max Temperature 12 °F 35 °F 56 °F (1932)
Min Temperature -4 °F 15 °F -12 °F (1963)
Degree Days  
Heating Degree Days 61    
Moisture  
Dew Point -6 °F    
Average Humidity 65    
Maximum Humidity 86    
Minimum Humidity 49    
Precipitation  
Precipitation 0.00 in - - ()
Sea Level Pressure  
Sea Level Pressure 29.92 in    
Wind  
Wind Speed 11 mph (WSW)    
Max Wind Speed 25 mph    
Max Gust Speed 34 mph    
Visibility 10 miles    
Events Snow    
Averages and records for this station are not official NWS values.
T = Trace of Precipitation, MM = Missing Value Source: NWS Daily Summary

Daily Weather History Graph

Daily Weather History Graph

Search for Another Location

Airport or City:

Trip Planner

Search our weather history database for the weather conditions in past years. The results will help you decide how hot, cold, wet, or windy it might be!

Date:

Astronomy

Feb. 26, 2014 Rise Set
Actual Time 6:35 AM CST 5:40 PM CST
Civil Twilight 6:07 AM CST 6:08 PM CST
Nautical Twilight 5:34 AM CST 6:41 PM CST
Astronomical Twilight 5:01 AM CST 7:14 PM CST
Moon 4:25 AM CST (2/26) 2:51 PM CST (2/26)
Length of Visible Light 12h 01m
Length of Day
11h 04m
Waning Crescent, 10% of the Moon is Illuminated
Feb 26
Waning Crescent
Mar 1
New
Mar 8
First Quarter
Mar 16
Full
Mar 23
Last Quarter

Hourly Weather History & Observations

Time (CST) Temp. Windchill Dew Point Humidity Pressure Visibility Wind Dir Wind Speed Gust Speed Precip Events Conditions
12:15 AM 1.0 °F -14.9 °F -7.6 °F 67% 30.19 in 10.0 mi WNW 10.4 mph - N/A   Clear
12:35 AM 0.5 °F -13.6 °F -8.0 °F 68% 30.19 in 10.0 mi WNW 8.1 mph - N/A   Clear
12:55 AM 0.5 °F -14.6 °F -8.1 °F 67% 30.19 in 10.0 mi WNW 9.2 mph - N/A   Clear
1:15 AM 0.3 °F -15.8 °F -8.5 °F 66% 30.19 in 10.0 mi WNW 10.4 mph - N/A   Clear
1:35 AM 0.1 °F -16.0 °F -8.7 °F 66% 30.20 in 10.0 mi WNW 10.4 mph - N/A   Clear
1:55 AM -0.2 °F -13.2 °F -9.0 °F 66% 30.19 in 10.0 mi WNW 6.9 mph - N/A   Clear
2:15 AM -0.4 °F -14.7 °F -9.4 °F 66% 30.19 in 10.0 mi WNW 8.1 mph - N/A   Clear
2:35 AM -0.8 °F -15.1 °F -9.4 °F 67% 30.19 in 10.0 mi WNW 8.1 mph - N/A   Clear
2:55 AM -1.3 °F -14.5 °F -9.6 °F 68% 30.18 in 10.0 mi West 6.9 mph - N/A   Clear
3:15 AM -1.7 °F -16.2 °F -9.6 °F 69% 30.18 in 10.0 mi WNW 8.1 mph - N/A   Clear
3:35 AM -2.2 °F -16.8 °F -10.1 °F 69% 30.18 in 10.0 mi WNW 8.1 mph - N/A   Clear
3:55 AM -2.4 °F -15.8 °F -10.3 °F 69% 30.18 in 10.0 mi WNW 6.9 mph - N/A   Clear
4:15 AM -2.7 °F -13.1 °F -10.3 °F 70% 30.18 in 10.0 mi West 4.6 mph - N/A   Clear
4:35 AM -3.1 °F -15.2 °F -10.5 °F 71% 30.17 in 10.0 mi West 5.8 mph - N/A   Clear
4:55 AM -3.1 °F -15.2 °F -10.5 °F 71% 30.17 in 10.0 mi West 5.8 mph - N/A   Clear
5:15 AM -3.3 °F -16.9 °F -10.7 °F 71% 30.16 in 10.0 mi West 6.9 mph - N/A   Clear
5:35 AM -3.6 °F -14.1 °F -11.2 °F 70% 30.16 in 10.0 mi West 4.6 mph - N/A   Clear
5:55 AM -4.0 °F -14.6 °F -11.2 °F 71% 30.15 in 10.0 mi West 4.6 mph - N/A   Clear
6:15 AM -4.2 °F -14.8 °F -11.2 °F 72% 30.15 in 10.0 mi West 4.6 mph - N/A   Clear
6:35 AM -4.7 °F -15.4 °F -11.4 °F 73% 30.14 in 10.0 mi West 4.6 mph - N/A   Clear
6:55 AM -4.9 °F -13.4 °F -11.2 °F 74% 30.13 in 10.0 mi WSW 3.5 mph - N/A   Clear
7:15 AM -4.9 °F -17.4 °F -11.2 °F 74% 30.14 in 10.0 mi WSW 5.8 mph - N/A   Clear
7:35 AM -4.0 °F -19.0 °F -11.2 °F 71% 30.14 in 10.0 mi WSW 8.1 mph - N/A   Clear
7:55 AM -3.3 °F -16.9 °F -11.2 °F 69% 30.14 in 10.0 mi WSW 6.9 mph - N/A   Clear
8:15 AM -2.2 °F -20.7 °F -10.8 °F 67% 30.13 in 10.0 mi SW 12.7 mph - N/A   Clear
8:35 AM -1.3 °F -19.6 °F -10.5 °F 65% 30.13 in 10.0 mi WSW 12.7 mph - N/A   Clear
8:55 AM -1.7 °F -20.8 °F -9.4 °F 70% 30.11 in 10.0 mi SW 13.8 mph - N/A   Clear
9:15 AM -1.3 °F -16.8 °F -9.9 °F 67% 30.10 in 10.0 mi SW 9.2 mph - N/A   Clear
9:35 AM -0.8 °F -16.2 °F -10.5 °F 63% 30.09 in 10.0 mi WSW 9.2 mph - N/A   Clear
9:55 AM 0.1 °F -14.0 °F -9.8 °F 63% 30.07 in 10.0 mi SW 8.1 mph - N/A   Clear
10:15 AM 1.0 °F -14.9 °F -10.1 °F 60% 30.06 in 10.0 mi SSW 10.4 mph - N/A   Clear
10:35 AM 1.8 °F -14.9 °F -9.6 °F 59% 30.04 in 10.0 mi SW 11.5 mph - N/A   Clear
10:55 AM 3.6 °F -12.6 °F -8.1 °F 58% 30.02 in 10.0 mi SW 11.5 mph - N/A   Clear
11:15 AM 4.3 °F -11.7 °F -7.6 °F 58% 29.99 in 10.0 mi SSW 11.5 mph - N/A   Clear
11:35 AM 5.0 °F -12.3 °F -7.1 °F 58% 29.98 in 10.0 mi SW 13.8 mph - N/A   Clear
11:55 AM 6.4 °F -12.3 °F -6.7 °F 55% 29.96 in 10.0 mi SW 17.3 mph 23.0 mph N/A   Scattered Clouds
12:15 PM 6.8 °F -12.9 °F -7.1 °F 53% 29.95 in 10.0 mi SW 19.6 mph 24.2 mph N/A   Scattered Clouds
12:35 PM 7.5 °F -11.4 °F -8.0 °F 49% 29.93 in 10.0 mi SW 18.4 mph 26.5 mph N/A   Clear
12:55 PM 7.2 °F -13.8 °F -7.8 °F 51% 29.92 in 10.0 mi SW 23.0 mph 31.1 mph N/A   Clear
1:15 PM 7.3 °F -12.2 °F -5.4 °F 56% 29.89 in 10.0 mi SW 19.6 mph 28.8 mph N/A   Clear
1:35 PM 8.1 °F -11.2 °F -6.0 °F 53% 29.86 in 10.0 mi SW 19.6 mph 25.3 mph N/A   Clear
1:55 PM 7.9 °F -13.7 °F -5.1 °F 56% 29.84 in 10.0 mi SW 25.3 mph 29.9 mph N/A   Clear
2:15 PM 7.5 °F -13.7 °F -6.5 °F 53% 29.81 in 10.0 mi SSW 24.2 mph 28.8 mph N/A   Clear
2:35 PM 8.1 °F -10.7 °F -4.5 °F 57% 29.79 in 10.0 mi SW 18.4 mph 27.6 mph N/A   Clear
2:55 PM 8.6 °F -11.4 °F -5.4 °F 53% 29.79 in 10.0 mi SW 21.9 mph 31.1 mph N/A   Clear
3:15 PM 9.0 °F -10.0 °F -5.6 °F 52% 29.79 in 10.0 mi WSW 19.6 mph 27.6 mph N/A   Clear
3:35 PM 8.8 °F -9.8 °F -6.7 °F 50% 29.77 in 10.0 mi SW 18.4 mph 25.3 mph N/A   Clear
3:55 PM 8.2 °F -11.0 °F -5.4 °F 54% 29.74 in 10.0 mi SW 19.6 mph 32.2 mph N/A   Mostly Cloudy
4:15 PM 8.4 °F -11.2 °F -4.7 °F 55% 29.73 in 10.0 mi SW 20.7 mph 34.5 mph N/A   Mostly Cloudy
4:35 PM 8.6 °F -11.0 °F -4.5 °F 55% 29.70 in 10.0 mi SW 20.7 mph 33.4 mph N/A   Scattered Clouds
4:55 PM 8.6 °F -11.4 °F -5.1 °F 54% 29.67 in 10.0 mi SW 21.9 mph 31.1 mph N/A   Clear
5:15 PM 8.1 °F -10.2 °F -4.4 °F 57% 29.67 in 10.0 mi SW 17.3 mph 23.0 mph N/A   Scattered Clouds
5:35 PM 7.7 °F -10.1 °F -4.2 °F 58% 29.68 in 10.0 mi SW 16.1 mph 25.3 mph N/A   Scattered Clouds
5:55 PM 8.1 °F -7.7 °F -4.0 °F 58% 29.68 in 10.0 mi SW 12.7 mph 19.6 mph N/A   Mostly Cloudy
6:15 PM 8.6 °F -6.3 °F -2.7 °F 60% 29.67 in 10.0 mi SW 11.5 mph 19.6 mph N/A   Overcast
6:35 PM 8.6 °F -8.9 °F -2.2 °F 62% 29.67 in 10.0 mi SW 16.1 mph - N/A   Overcast
6:55 PM 8.6 °F -4.7 °F -2.2 °F 62% 29.66 in 10.0 mi SW 9.2 mph 18.4 mph N/A   Mostly Cloudy
7:15 PM 8.6 °F -5.5 °F -1.7 °F 63% 29.65 in 10.0 mi SW 10.4 mph 17.3 mph N/A   Scattered Clouds
7:35 PM 8.6 °F -6.3 °F -1.3 °F 64% 29.64 in 10.0 mi SW 11.5 mph 17.3 mph N/A   Mostly Cloudy
7:55 PM 8.6 °F -7.0 °F -1.1 °F 65% 29.62 in 10.0 mi SW 12.7 mph - N/A   Mostly Cloudy
8:15 PM 9.1 °F -5.6 °F -0.4 °F 65% 29.61 in 10.0 mi SW 11.5 mph - N/A   Mostly Cloudy
8:35 PM 9.5 °F -3.5 °F 0.5 °F 67% 29.61 in 10.0 mi SW 9.2 mph - N/A   Scattered Clouds
8:55 PM 10.2 °F -4.3 °F 1.4 °F 68% 29.59 in 10.0 mi WSW 11.5 mph 17.3 mph N/A   Clear
9:15 PM 10.8 °F -5.0 °F 2.3 °F 69% 29.59 in 10.0 mi SW 13.8 mph 18.4 mph N/A   Scattered Clouds
9:35 PM 11.1 °F -2.4 °F 3.2 °F 70% 29.58 in 10.0 mi WSW 10.4 mph - N/A   Scattered Clouds
9:55 PM 11.3 °F -1.3 °F 3.9 °F 72% 29.58 in 10.0 mi WSW 9.2 mph - N/A   Scattered Clouds
10:15 PM 11.7 °F -0.9 °F 4.3 °F 72% 29.57 in 10.0 mi WSW 9.2 mph - N/A   Scattered Clouds
10:35 PM 11.7 °F -0.9 °F 4.8 °F 74% 29.57 in 10.0 mi WSW 9.2 mph - N/A   Scattered Clouds
10:55 PM 12.2 °F -1.0 °F 6.8 °F 79% 29.57 in 3.0 mi West 10.4 mph - N/A Snow Light Snow
11:15 PM 12.9 °F -3.4 °F 9.5 °F 86% 29.58 in 1.8 mi West 16.1 mph 21.9 mph N/A Snow Light Snow
11:35 PM 12.9 °F -4.4 °F 8.8 °F 84% 29.59 in 1.8 mi NW 18.4 mph 25.3 mph N/A Snow Light Snow
11:55 PM 11.5 °F -7.2 °F 7.3 °F 83% 29.61 in 1.8 mi NW 20.7 mph 29.9 mph N/A Snow Light Snow